Time;durP1;ratioP1;P1;durP2;ratioP2;P2;SDS_P1;SDS_P2;PMS_P1;PMS_P2;Temp;Humidity;BMP_temperature;BMP_pressure;BME280_temperature;BME280_humidity;BME280_pressure;Samples;Min_cycle;Max_cycle;Signal;HPM_P1;HPM_P2
2021/01/02 00:01:43;;;;;;;35.53;21.77;;;3.20;73.30;;;;;;5062391;28;20087;-62
2021/01/02 00:04:30;;;;;;;33.92;21.15;;;3.20;73.60;;;;;;5064111;28;20422;-62
2021/01/02 00:07:32;;;;;;;36.45;21.92;;;3.20;73.60;;;;;;5062220;28;20033;-62
2021/01/02 00:10:00;;;;;;;35.65;21.25;;;3.20;73.50;;;;;;5060599;28;20123;-62
2021/01/02 00:13:04;;;;;;;34.67;21.60;;;3.20;74.00;;;;;;5060177;28;20041;-62
2021/01/02 00:16:01;;;;;;;36.30;21.02;;;3.20;73.90;;;;;;5061829;28;20044;-62
2021/01/02 00:18:30;;;;;;;36.35;22.27;;;3.30;74.10;;;;;;5060574;28;20291;-62
2021/01/02 00:21:01;;;;;;;38.90;22.83;;;3.20;73.70;;;;;;5061304;28;20033;-62
2021/01/02 00:23:42;;;;;;;;;;;3.30;73.50;;;;;;5061746;28;20099;-62
2021/01/02 00:26:46;;;;;;;35.88;20.98;;;3.20;73.60;;;;;;5061133;28;19904;-62
2021/01/02 00:29:19;;;;;;;35.65;22.05;;;3.30;73.70;;;;;;5059910;28;20044;-62
2021/01/02 00:32:19;;;;;;;34.25;22.17;;;3.30;73.50;;;;;;5060168;28;20028;-62
2021/01/02 00:34:50;;;;;;;39.97;22.25;;;3.30;73.60;;;;;;5059648;28;20064;-61
2021/01/02 00:37:40;;;;;;;39.80;22.90;;;3.30;74.00;;;;;;5064015;28;20063;-62
2021/01/02 00:40:12;;;;;;;36.05;22.13;;;3.20;74.30;;;;;;5061913;28;20104;-62
2021/01/02 00:42:39;;;;;;;39.40;22.25;;;3.20;74.20;;;;;;5061302;28;20044;-62
2021/01/02 00:45:06;;;;;;;36.45;21.45;;;3.20;74.60;;;;;;5061294;28;20051;-62
2021/01/02 00:47:36;;;;;;;35.75;22.00;;;3.30;74.50;;;;;;5044401;28;20209;-62
2021/01/02 00:50:02;;;;;;;38.35;22.35;;;3.20;74.20;;;;;;5051566;28;20033;-61
2021/01/02 00:52:46;;;;;;;35.55;22.35;;;3.30;74.00;;;;;;5064494;28;20041;-62
2021/01/02 00:55:32;;;;;;;42.00;22.23;;;3.20;74.00;;;;;;5061925;28;20324;-62
2021/01/02 00:58:05;;;;;;;39.22;21.65;;;3.30;74.20;;;;;;5059856;28;20075;-62
2021/01/02 01:00:35;;;;;;;37.65;22.50;;;3.30;74.10;;;;;;5060631;28;20037;-62
2021/01/02 01:03:17;;;;;;;38.00;22.95;;;3.30;74.30;;;;;;5060814;28;20049;-62
2021/01/02 01:05:46;;;;;;;35.92;22.30;;;3.30;74.60;;;;;;5059409;28;20033;-62
2021/01/02 01:08:11;;;;;;;37.28;21.38;;;3.40;74.30;;;;;;5059957;28;20287;-62
2021/01/02 01:10:37;;;;;;;37.55;22.33;;;3.40;74.30;;;;;;5063300;28;20033;-62
2021/01/02 01:13:06;;;;;;;39.60;21.95;;;3.30;74.20;;;;;;5067478;28;20021;-62
2021/01/02 01:15:32;;;;;;;34.95;21.92;;;3.20;74.50;;;;;;5064363;28;20120;-62
2021/01/02 01:18:04;;;;;;;35.88;21.80;;;3.30;74.50;;;;;;5063014;28;20075;-61
2021/01/02 01:20:30;;;;;;;38.78;22.92;;;3.30;74.30;;;;;;5063222;28;20037;-62
2021/01/02 01:23:06;;;;;;;37.80;22.52;;;3.30;74.40;;;;;;5063209;28;20072;-62
2021/01/02 01:25:39;;;;;;;35.97;21.88;;;3.20;74.20;;;;;;5067234;28;20024;-62
2021/01/02 01:28:05;;;;;;;34.72;22.67;;;3.30;74.30;;;;;;5064347;28;20028;-61
2021/01/02 01:30:38;;;;;;;36.75;21.10;;;3.30;74.20;;;;;;5062676;28;20048;-62
2021/01/02 01:33:03;;;;;;;36.38;21.88;;;3.40;74.50;;;;;;5063302;28;20049;-62
2021/01/02 01:35:29;;;;;;;38.78;21.35;;;3.40;74.30;;;;;;5064149;28;20068;-62
2021/01/02 01:37:58;;;;;;;37.03;21.77;;;3.50;73.90;;;;;;5062832;28;22542;-62
2021/01/02 01:40:30;;;;;;;36.92;21.13;;;3.50;73.40;;;;;;5066219;28;20080;-62
2021/01/02 01:43:04;;;;;;;35.35;22.20;;;3.40;73.40;;;;;;5064178;28;20091;-62
2021/01/02 01:45:38;;;;;;;36.95;21.92;;;3.40;73.80;;;;;;5062802;28;20037;-62
2021/01/02 01:48:16;;;;;;;36.17;21.55;;;3.40;74.40;;;;;;5063933;28;20037;-62
2021/01/02 01:50:42;;;;;;;33.88;21.08;;;3.30;74.50;;;;;;5062935;28;20280;-62
2021/01/02 01:53:39;;;;;;;38.35;22.42;;;3.30;74.40;;;;;;5063638;28;20212;-62
2021/01/02 01:56:42;;;;;;;38.50;21.98;;;3.30;74.50;;;;;;5062683;28;20272;-62
2021/01/02 01:59:17;;;;;;;36.97;21.30;;;3.30;74.60;;;;;;5063469;28;20037;-62
2021/01/02 02:01:45;;;;;;;37.85;21.95;;;3.40;74.40;;;;;;5063665;28;20091;-62
2021/01/02 02:04:11;;;;;;;38.92;22.20;;;3.30;74.30;;;;;;5067079;28;20037;-62
2021/01/02 02:06:37;;;;;;;36.17;21.05;;;3.30;74.20;;;;;;5064012;28;20040;-62
2021/01/02 02:09:03;;;;;;;39.95;22.55;;;3.30;74.60;;;;;;5063334;28;20378;-63
2021/01/02 02:11:34;;;;;;;36.75;22.65;;;3.40;74.20;;;;;;5062008;28;20096;-62
2021/01/02 02:14:10;;;;;;;35.25;21.70;;;3.30;74.20;;;;;;5063379;28;20422;-62
2021/01/02 02:16:59;;;;;;;36.15;21.13;;;3.30;74.10;;;;;;5047581;28;20064;-65
2021/01/02 02:20:02;;;;;;;35.08;21.55;;;3.40;73.90;;;;;;5057338;28;20330;-61
2021/01/02 02:22:28;;;;;;;36.40;22.40;;;3.30;74.00;;;;;;5064696;28;20104;-62
2021/01/02 02:24:54;;;;;;;39.28;22.25;;;3.30;74.00;;;;;;5062066;28;20037;-62
2021/01/02 02:27:27;;;;;;;34.97;21.05;;;3.30;74.30;;;;;;5062941;28;20081;-61
2021/01/02 02:30:25;;;;;;;33.35;20.55;;;3.30;74.30;;;;;;5062825;28;20328;-62
2021/01/02 02:32:50;;;;;;;34.50;20.63;;;3.30;74.50;;;;;;5061849;28;20396;-62
2021/01/02 02:35:17;;;;;;;32.00;20.02;;;3.40;74.50;;;;;;5062862;28;20037;-62
2021/01/02 02:37:52;;;;;;;37.00;20.38;;;3.20;74.50;;;;;;5063125;28;20049;-61
2021/01/02 02:40:19;;;;;;;35.33;21.00;;;3.20;74.40;;;;;;5066176;28;20326;-63
2021/01/02 02:42:54;;;;;;;38.45;21.52;;;3.20;74.30;;;;;;5063199;28;20208;-62
2021/01/02 02:45:20;;;;;;;38.40;21.98;;;3.30;74.60;;;;;;5061776;28;20220;-62
2021/01/02 02:47:45;;;;;;;35.15;20.83;;;3.30;74.20;;;;;;5061718;28;20037;-62
2021/01/02 02:50:24;;;;;;;34.67;21.70;;;3.20;74.30;;;;;;5061527;28;20033;-62
2021/01/02 02:52:56;;;;;;;34.42;20.98;;;3.20;74.30;;;;;;5062613;28;20074;-62
2021/01/02 02:55:21;;;;;;;34.83;21.73;;;3.20;74.40;;;;;;5065520;28;20037;-62
2021/01/02 02:57:48;;;;;;;35.58;21.00;;;3.20;74.30;;;;;;5061486;28;20082;-62
2021/01/02 03:00:15;;;;;;;33.20;20.95;;;3.20;74.10;;;;;;5062490;28;20037;-61
2021/01/02 03:02:40;;;;;;;36.03;21.35;;;3.10;74.60;;;;;;5062221;28;20103;-62
2021/01/02 03:05:10;;;;;;;36.42;22.27;;;3.10;74.80;;;;;;5062552;28;20037;-62
2021/01/02 03:07:46;;;;;;;33.20;20.45;;;3.10;74.90;;;;;;5063019;28;20327;-63
2021/01/02 03:10:13;;;;;;;34.35;20.48;;;3.10;74.80;;;;;;5064460;28;20029;-62
2021/01/02 03:12:48;;;;;;;33.63;20.88;;;3.20;74.80;;;;;;5062512;28;20040;-61
2021/01/02 03:15:15;;;;;;;36.65;21.13;;;3.20;74.80;;;;;;5061870;28;20239;-62
2021/01/02 03:17:42;;;;;;;37.05;21.88;;;3.20;74.80;;;;;;5062101;28;20075;-62
2021/01/02 03:20:08;;;;;;;32.42;20.83;;;3.10;74.70;;;;;;5062178;28;20226;-62
2021/01/02 03:22:33;;;;;;;34.00;20.92;;;3.20;74.70;;;;;;5064279;28;20049;-62
2021/01/02 03:24:59;;;;;;;35.33;21.13;;;3.30;74.20;;;;;;5061944;28;20140;-62
2021/01/02 03:27:25;;;;;;;32.42;19.85;;;3.30;74.10;;;;;;5062263;28;20090;-62
2021/01/02 03:29:50;;;;;;;35.63;21.02;;;3.30;74.70;;;;;;5062195;28;20041;-63
2021/01/02 03:32:16;;;;;;;35.75;20.92;;;3.30;74.60;;;;;;5061210;28;20033;-62
2021/01/02 03:34:41;;;;;;;33.95;20.58;;;3.30;74.60;;;;;;5061573;28;20312;-62
2021/01/02 03:37:08;;;;;;;31.02;19.02;;;3.40;74.90;;;;;;5064008;28;20059;-62
2021/01/02 03:39:33;;;;;;;34.70;21.48;;;3.40;74.50;;;;;;5061973;28;20041;-62
2021/01/02 03:41:59;;;;;;;33.38;20.27;;;3.40;74.40;;;;;;5061720;28;20060;-62
2021/01/02 03:44:24;;;;;;;33.92;19.95;;;3.30;74.40;;;;;;5061629;28;20063;-62
2021/01/02 03:46:50;;;;;;;36.78;20.60;;;3.20;74.40;;;;;;5061563;28;20076;-62
2021/01/02 03:49:15;;;;;;;34.13;20.05;;;3.20;74.50;;;;;;5064617;28;20028;-62
2021/01/02 03:51:41;;;;;;;33.78;20.05;;;3.30;74.90;;;;;;5061778;28;20033;-62
2021/01/02 03:54:06;;;;;;;32.42;19.95;;;3.30;74.60;;;;;;5061389;28;20052;-62
2021/01/02 03:56:32;;;;;;;35.70;20.77;;;3.20;74.60;;;;;;5060228;28;20098;-62
2021/01/02 03:58:57;;;;;;;31.52;19.40;;;3.20;74.80;;;;;;5059983;28;20037;-62
2021/01/02 04:01:23;;;;;;;33.88;20.48;;;3.30;74.80;;;;;;5064606;28;20025;-62
2021/01/02 04:03:48;;;;;;;33.88;20.25;;;3.10;74.70;;;;;;5061391;28;20261;-62
2021/01/02 04:06:14;;;;;;;33.70;20.42;;;3.20;74.60;;;;;;5061640;28;20048;-62
2021/01/02 04:08:40;;;;;;;35.17;20.67;;;3.20;74.50;;;;;;5060040;28;20036;-62
2021/01/02 04:11:06;;;;;;;31.33;18.92;;;3.20;74.50;;;;;;5060051;28;20052;-61
2021/01/02 04:13:31;;;;;;;27.48;17.00;;;3.20;74.50;;;;;;5063416;28;20052;-62
2021/01/02 04:15:57;;;;;;;28.25;17.00;;;3.30;74.40;;;;;;5060805;28;20049;-62
2021/01/02 04:18:23;;;;;;;27.00;15.23;;;3.30;74.10;;;;;;5060270;28;20060;-62
2021/01/02 04:20:49;;;;;;;23.05;14.38;;;3.40;74.00;;;;;;5061092;28;20032;-61
2021/01/02 04:23:14;;;;;;;22.90;14.57;;;3.30;74.30;;;;;;5060881;28;20092;-62
2021/01/02 04:25:40;;;;;;;23.10;13.63;;;3.40;74.10;;;;;;5060986;28;20075;-62
2021/01/02 04:28:10;;;;;;;21.88;13.30;;;3.40;74.30;;;;;;5063258;28;20317;-62
2021/01/02 04:30:36;;;;;;;21.25;12.93;;;3.40;74.20;;;;;;5061343;28;20041;-62
2021/01/02 04:33:02;;;;;;;22.17;12.98;;;3.30;74.20;;;;;;5060755;28;20100;-61
2021/01/02 04:35:27;;;;;;;21.08;12.77;;;3.30;74.20;;;;;;5060747;28;20048;-62
2021/01/02 04:37:53;;;;;;;18.35;11.75;;;3.30;73.80;;;;;;5060773;28;20024;-62
2021/01/02 04:40:18;;;;;;;20.38;12.40;;;3.30;73.50;;;;;;5063960;28;20316;-62
2021/01/02 04:42:44;;;;;;;20.30;11.60;;;3.30;73.20;;;;;;5061316;28;20037;-62
2021/01/02 04:45:10;;;;;;;19.23;12.07;;;3.20;73.20;;;;;;5063255;28;20278;-62
2021/01/02 04:47:37;;;;;;;18.65;11.70;;;3.30;73.00;;;;;;5064946;28;20082;-62
2021/01/02 04:50:07;;;;;;;19.77;11.30;;;3.30;73.10;;;;;;5063942;28;20100;-62
2021/01/02 04:52:33;;;;;;;18.42;11.13;;;3.20;73.10;;;;;;5066914;28;20212;-62
2021/01/02 04:54:59;;;;;;;21.02;12.25;;;3.20;73.00;;;;;;5063632;28;20107;-62
2021/01/02 04:57:24;;;;;;;20.30;11.85;;;3.20;72.80;;;;;;5064891;28;20047;-62
2021/01/02 04:59:50;;;;;;;19.67;11.95;;;3.20;72.60;;;;;;5063632;28;20065;-62
2021/01/02 05:02:19;;;;;;;22.35;11.77;;;3.10;73.30;;;;;;5063831;28;20029;-62
2021/01/02 05:04:49;;;;;;;19.88;12.07;;;3.10;73.30;;;;;;5063444;28;20089;-62
2021/01/02 05:07:25;;;;;;;21.52;11.90;;;3.10;73.00;;;;;;5067959;28;20224;-62
2021/01/02 05:09:50;;;;;;;21.30;12.23;;;3.10;72.80;;;;;;5064863;28;20053;-62
2021/01/02 05:12:32;;;;;;;18.80;12.10;;;3.10;73.10;;;;;;5063307;28;20033;-62
2021/01/02 05:14:59;;;;;;;19.08;12.38;;;3.00;73.50;;;;;;5064281;28;20292;-62
2021/01/02 05:17:25;;;;;;;18.73;11.98;;;3.00;73.60;;;;;;5063566;28;20037;-62
2021/01/02 05:20:02;;;;;;;19.17;12.77;;;3.00;73.50;;;;;;5063108;28;20040;-62
2021/01/02 05:22:28;;;;;;;20.23;12.50;;;3.10;73.60;;;;;;5067639;28;20033;-62
2021/01/02 05:25:12;;;;;;;20.15;12.80;;;3.10;73.70;;;;;;5064675;28;20043;-62
2021/01/02 05:27:38;;;;;;;21.13;12.82;;;3.20;73.70;;;;;;5063273;28;20093;-61
2021/01/02 05:30:13;;;;;;;20.05;12.35;;;3.10;73.50;;;;;;5064431;28;20186;-62
2021/01/02 05:33:14;;;;;;;22.77;13.57;;;3.10;73.80;;;;;;5064371;28;20256;-63
2021/01/02 05:35:44;;;;;;;18.98;12.52;;;3.10;74.00;;;;;;5062239;28;20108;-62
2021/01/02 05:38:23;;;;;;;19.20;12.80;;;3.20;73.80;;;;;;5063862;28;20033;-62
2021/01/02 05:40:52;;;;;;;20.80;12.95;;;3.20;73.70;;;;;;5064512;28;20268;-62
2021/01/02 05:43:19;;;;;;;22.58;13.60;;;3.20;73.50;;;;;;5067548;28;20048;-61
2021/01/02 05:45:45;;;;;;;22.65;13.80;;;3.30;74.10;;;;;;5064261;28;20324;-62
2021/01/02 05:48:16;;;;;;;21.00;12.93;;;3.30;74.20;;;;;;5064022;28;20041;-62
2021/01/02 05:51:00;;;;;;;24.45;14.02;;;3.30;73.90;;;;;;5062746;28;20040;-61
2021/01/02 05:53:30;;;;;;;21.00;12.68;;;3.30;73.70;;;;;;5063939;28;20037;-61
2021/01/02 05:56:01;;;;;;;20.95;12.90;;;3.30;73.40;;;;;;5061657;28;20434;-62
2021/01/02 05:58:30;;;;;;;22.55;13.02;;;3.30;72.80;;;;;;5066939;28;20033;-62
2021/01/02 06:01:02;;;;;;;18.83;12.60;;;3.30;72.90;;;;;;5063983;28;20324;-62
2021/01/02 06:03:28;;;;;;;21.63;12.88;;;3.30;73.00;;;;;;5063385;28;20048;-63
2021/01/02 06:05:57;;;;;;;18.40;11.77;;;3.40;72.90;;;;;;5062493;28;20040;-62
2021/01/02 06:08:29;;;;;;;18.85;12.07;;;3.40;72.10;;;;;;5063423;28;20049;-62
2021/01/02 06:10:55;;;;;;;19.92;12.38;;;3.40;72.40;;;;;;5063327;28;20320;-62
2021/01/02 06:13:21;;;;;;;20.50;12.43;;;3.50;71.90;;;;;;5065335;28;20025;-62
2021/01/02 06:15:46;;;;;;;21.45;12.60;;;3.40;71.90;;;;;;5061857;28;20052;-62
2021/01/02 06:18:12;;;;;;;19.17;12.32;;;3.40;71.80;;;;;;5063158;28;20049;-62
2021/01/02 06:20:37;;;;;;;21.05;12.90;;;3.40;71.60;;;;;;5061858;28;20044;-62
2021/01/02 06:23:03;;;;;;;18.15;11.70;;;3.40;72.00;;;;;;5063108;28;20033;-62
2021/01/02 06:25:28;;;;;;;20.52;13.38;;;3.30;71.50;;;;;;5065415;28;20212;-61
2021/01/02 06:27:54;;;;;;;21.38;12.95;;;3.40;71.70;;;;;;5062511;28;20324;-62
2021/01/02 06:30:20;;;;;;;20.30;12.32;;;3.40;72.20;;;;;;5063067;28;20044;-62
2021/01/02 06:32:46;;;;;;;19.08;12.13;;;3.40;71.90;;;;;;5063072;28;20052;-62
2021/01/02 06:35:11;;;;;;;19.13;12.07;;;3.40;71.50;;;;;;5061588;28;20100;-62
2021/01/02 06:37:49;;;;;;;18.33;12.48;;;3.40;71.20;;;;;;5062829;28;20036;-62
2021/01/02 06:40:25;;;;;;;22.25;13.68;;;3.40;71.40;;;;;;5066517;28;20089;-62
2021/01/02 06:43:13;;;;;;;20.38;12.85;;;3.30;71.80;;;;;;5063327;28;20044;-62
2021/01/02 06:45:39;;;;;;;18.63;11.98;;;3.40;71.50;;;;;;5063249;28;20058;-62
2021/01/02 06:48:16;;;;;;;21.40;13.27;;;3.30;71.70;;;;;;5062919;28;20334;-62
2021/01/02 06:50:52;;;;;;;20.45;13.07;;;3.30;71.50;;;;;;5062686;28;20240;-62
2021/01/02 06:53:18;;;;;;;21.17;13.10;;;3.40;71.40;;;;;;5061426;28;20037;-62
2021/01/02 06:55:44;;;;;;;23.05;13.60;;;3.40;71.40;;;;;;5062495;28;20036;-62
2021/01/02 06:58:17;;;;;;;19.77;12.52;;;3.30;71.50;;;;;;5065545;28;20033;-62
2021/01/02 07:00:42;;;;;;;20.23;13.43;;;3.30;71.70;;;;;;5045116;28;20040;-62
2021/01/02 07:03:39;;;;;;;22.15;13.35;;;3.30;71.90;;;;;;5062352;28;20041;-62
2021/01/02 07:06:20;;;;;;;22.23;13.77;;;3.30;71.70;;;;;;5062465;28;20060;-62
2021/01/02 07:08:56;;;;;;;22.05;13.13;;;3.40;71.70;;;;;;5062446;28;20063;-62
2021/01/02 07:11:38;;;;;;;21.27;13.38;;;3.40;71.80;;;;;;5062215;28;20096;-62
2021/01/02 07:14:09;;;;;;;19.85;12.98;;;3.40;71.80;;;;;;5062350;28;20055;-62
2021/01/02 07:16:57;;;;;;;22.20;13.60;;;3.40;72.40;;;;;;5065300;28;20266;-61
2021/01/02 07:19:26;;;;;;;24.83;14.52;;;3.40;71.80;;;;;;5064178;28;20032;-62
2021/01/02 07:22:22;;;;;;;21.13;14.02;;;3.40;71.50;;;;;;5062429;28;20193;-62
2021/01/02 07:25:01;;;;;;;22.95;14.07;;;3.30;71.80;;;;;;5062391;28;20190;-62
2021/01/02 07:27:31;;;;;;;24.55;14.65;;;3.30;72.30;;;;;;5062147;28;20100;-62
2021/01/02 07:30:08;;;;;;;21.65;14.02;;;3.30;72.20;;;;;;5060849;28;20057;-61
2021/01/02 07:32:35;;;;;;;21.77;14.13;;;3.40;72.30;;;;;;5061953;28;20071;-61
2021/01/02 07:35:03;;;;;;;24.52;14.18;;;3.40;72.40;;;;;;5061830;28;20044;-61
2021/01/02 07:37:30;;;;;;;23.92;14.68;;;3.40;72.20;;;;;;5063718;28;20034;-62
2021/01/02 07:40:05;;;;;;;24.80;14.77;;;3.30;72.40;;;;;;5060558;28;20041;-64
2021/01/02 07:42:35;;;;;;;22.58;13.85;;;3.40;72.50;;;;;;5061943;28;20060;-61
2021/01/02 07:45:02;;;;;;;21.75;14.10;;;3.40;72.30;;;;;;5061953;28;20086;-62
2021/01/02 07:47:28;;;;;;;24.83;14.90;;;3.40;72.20;;;;;;5060797;28;20060;-62
2021/01/02 07:50:05;;;;;;;23.45;13.98;;;3.50;72.10;;;;;;5043882;28;20021;-61
2021/01/02 07:52:30;;;;;;;24.33;14.25;;;3.50;72.20;;;;;;5064780;28;20263;-61
2021/01/02 07:54:56;;;;;;;25.67;15.07;;;3.50;72.10;;;;;;5060513;28;20036;-61
2021/01/02 07:57:22;;;;;;;27.35;16.13;;;3.40;72.20;;;;;;5060171;28;20033;-61
2021/01/02 07:59:48;;;;;;;23.65;14.30;;;3.40;72.10;;;;;;5061323;28;20044;-61
2021/01/02 08:02:19;;;;;;;24.40;15.15;;;3.40;72.00;;;;;;5061438;28;20033;-61
2021/01/02 08:04:45;;;;;;;24.45;14.75;;;3.40;72.00;;;;;;5043557;28;20307;-62
2021/01/02 08:07:10;;;;;;;26.42;15.80;;;3.40;72.30;;;;;;5063490;28;20033;-62
2021/01/02 08:09:36;;;;;;;24.50;14.70;;;3.50;72.60;;;;;;5061305;28;20045;-61
2021/01/02 08:12:06;;;;;;;25.23;15.55;;;3.50;71.90;;;;;;5061144;28;20037;-61
2021/01/02 08:14:32;;;;;;;27.13;16.27;;;3.60;71.80;;;;;;5061014;28;20057;-62
2021/01/02 08:17:31;;;;;;;29.35;16.23;;;3.40;72.10;;;;;;5060910;28;20045;-62
2021/01/02 08:19:56;;;;;;;25.42;15.32;;;3.50;71.70;;;;;;5059614;28;20049;-61
2021/01/02 08:22:38;;;;;;;26.48;16.70;;;3.40;71.90;;;;;;5064363;28;20047;-61
2021/01/02 08:25:15;;;;;;;28.58;15.85;;;3.50;71.90;;;;;;5061400;28;20232;-61
2021/01/02 08:27:40;;;;;;;25.38;15.30;;;3.50;72.20;;;;;;5060202;28;20052;-62
2021/01/02 08:30:08;;;;;;;26.58;15.77;;;3.50;71.80;;;;;;5060840;28;20045;-61
2021/01/02 08:32:39;;;;;;;26.58;15.30;;;3.40;72.00;;;;;;5060959;28;20120;-63
2021/01/02 08:35:18;;;;;;;25.52;16.13;;;3.50;72.20;;;;;;5060676;28;20216;-61
2021/01/02 08:37:44;;;;;;;27.15;16.33;;;3.50;71.90;;;;;;5060692;28;20067;-62
2021/01/02 08:40:11;;;;;;;25.33;15.52;;;3.50;72.10;;;;;;5063104;28;20033;-68
2021/01/02 08:42:37;;;;;;;27.95;17.00;;;3.50;71.50;;;;;;5043207;28;20065;-65
2021/01/02 08:45:05;;;;;;;25.45;15.85;;;3.40;72.00;;;;;;5059439;28;20100;-68
2021/01/02 08:47:30;;;;;;;26.80;17.02;;;3.50;71.80;;;;;;5059375;28;20075;-61
2021/01/02 08:49:56;;;;;;;27.38;16.48;;;3.60;71.40;;;;;;5059786;28;20044;-62
2021/01/02 08:52:25;;;;;;;27.92;16.23;;;3.60;71.00;;;;;;5046476;28;20285;-62
2021/01/02 08:55:07;;;;;;;26.52;15.88;;;3.60;71.00;;;;;;5039830;28;20037;-62
2021/01/02 08:57:34;;;;;;;26.52;16.27;;;3.60;71.40;;;;;;5055725;28;20082;-62
2021/01/02 09:00:16;;;;;;;24.67;15.45;;;3.60;71.50;;;;;;5042864;28;20366;-62
2021/01/02 09:02:46;;;;;;;26.30;15.45;;;3.60;70.90;;;;;;5059393;28;20037;-62
2021/01/02 09:05:17;;;;;;;27.57;15.67;;;3.70;71.10;;;;;;5059604;28;20040;-62
2021/01/02 09:07:53;;;;;;;28.17;15.63;;;3.80;70.90;;;;;;5059379;28;20033;-63
2021/01/02 09:10:30;;;;;;;26.52;16.40;;;3.60;71.00;;;;;;5062539;28;20037;-63
2021/01/02 09:13:22;;;;;;;27.08;16.17;;;3.70;70.80;;;;;;5059862;28;20040;-62
2021/01/02 09:15:51;;;;;;;24.10;15.15;;;3.60;69.90;;;;;;5060315;28;20045;-62
2021/01/02 09:18:18;;;;;;;27.00;16.02;;;3.70;70.40;;;;;;5059609;28;20079;-62
2021/01/02 09:20:44;;;;;;;27.70;16.08;;;3.70;70.30;;;;;;5060361;28;20130;-62
2021/01/02 09:23:09;;;;;;;26.25;15.70;;;3.70;70.70;;;;;;5042710;28;20032;-62
2021/01/02 09:25:36;;;;;;;26.38;16.10;;;3.70;70.50;;;;;;5062474;28;20036;-62
2021/01/02 09:28:11;;;;;;;27.85;16.60;;;3.70;70.50;;;;;;5060962;28;20043;-62
2021/01/02 09:30:36;;;;;;;26.50;16.67;;;3.60;70.30;;;;;;5062713;28;20331;-63
2021/01/02 09:33:02;;;;;;;28.23;16.10;;;3.60;69.60;;;;;;5064022;28;20033;-62
2021/01/02 09:35:27;;;;;;;25.42;16.30;;;3.40;69.60;;;;;;5063851;28;20068;-62
2021/01/02 09:37:53;;;;;;;27.60;16.05;;;3.40;70.20;;;;;;5063804;28;20029;-62
2021/01/02 09:40:20;;;;;;;25.30;16.17;;;3.60;70.10;;;;;;5066067;28;20170;-63
2021/01/02 09:42:45;;;;;;;27.60;15.60;;;3.60;69.90;;;;;;5062971;28;20083;-62
2021/01/02 09:45:11;;;;;;;25.48;15.57;;;3.60;69.20;;;;;;5064135;28;20045;-63
2021/01/02 09:47:37;;;;;;;25.25;15.57;;;3.60;69.10;;;;;;5064021;28;20048;-62
2021/01/02 09:50:03;;;;;;;24.58;15.00;;;3.50;69.00;;;;;;5063856;28;20037;-62
2021/01/02 09:52:29;;;;;;;26.55;15.73;;;3.50;68.90;;;;;;5066907;28;20036;-63
2021/01/02 09:54:55;;;;;;;26.88;15.90;;;3.40;68.30;;;;;;5046837;28;20068;-62
2021/01/02 09:57:20;;;;;;;25.63;15.40;;;3.50;68.90;;;;;;5061788;28;20040;-63
2021/01/02 09:59:46;;;;;;;25.02;15.18;;;3.50;68.70;;;;;;5063312;28;20343;-63
2021/01/02 10:02:11;;;;;;;26.70;14.95;;;3.60;68.80;;;;;;5063470;28;20186;-63
2021/01/02 10:04:48;;;;;;;27.02;17.10;;;3.50;68.30;;;;;;5062664;28;20024;-64
2021/01/02 10:07:14;;;;;;;27.58;15.85;;;3.20;68.30;;;;;;5065752;28;20063;-63
2021/01/02 10:09:40;;;;;;;28.08;16.38;;;3.30;69.00;;;;;;5063933;28;20107;-64
2021/01/02 10:12:06;;;;;;;24.23;15.05;;;3.30;69.20;;;;;;5062423;28;20045;-64
2021/01/02 10:14:32;;;;;;;28.48;15.85;;;3.40;70.10;;;;;;5061975;28;20115;-63
2021/01/02 10:16:57;;;;;;;28.35;16.98;;;3.50;69.40;;;;;;5063262;28;20051;-63
2021/01/02 10:19:23;;;;;;;25.95;16.25;;;3.50;70.10;;;;;;5066570;28;20029;-63
2021/01/02 10:21:48;;;;;;;28.35;15.98;;;3.60;69.50;;;;;;5063663;28;20041;-63
2021/01/02 10:24:14;;;;;;;27.55;16.20;;;3.60;70.20;;;;;;5062245;28;20351;-64
2021/01/02 10:26:39;;;;;;;27.65;16.40;;;3.60;69.50;;;;;;5063186;28;20041;-63
2021/01/02 10:29:05;;;;;;;26.15;16.33;;;3.60;69.70;;;;;;5063178;28;20052;-63
2021/01/02 10:31:30;;;;;;;27.10;16.55;;;3.60;69.00;;;;;;5066384;28;20036;-63
2021/01/02 10:33:56;;;;;;;27.80;16.88;;;3.60;68.60;;;;;;5063261;28;20063;-63
2021/01/02 10:36:21;;;;;;;27.05;16.20;;;3.50;68.40;;;;;;5061686;28;20033;-63
2021/01/02 10:38:47;;;;;;;26.42;15.90;;;3.70;68.80;;;;;;5062888;28;20040;-63
2021/01/02 10:41:13;;;;;;;28.00;15.82;;;3.70;68.50;;;;;;5062164;28;20043;-63
2021/01/02 10:43:39;;;;;;;28.98;16.33;;;3.80;68.60;;;;;;5062709;28;20327;-64
2021/01/02 10:46:06;;;;;;;29.52;16.60;;;3.80;68.90;;;;;;5065990;28;20059;-63
2021/01/02 10:48:32;;;;;;;29.90;17.05;;;3.70;68.00;;;;;;5062879;28;20131;-63
2021/01/02 10:50:57;;;;;;;26.77;15.77;;;3.70;68.30;;;;;;5062559;28;20040;-63
2021/01/02 10:53:23;;;;;;;28.58;16.48;;;3.70;68.10;;;;;;5062489;28;20036;-63
2021/01/02 10:55:48;;;;;;;26.98;16.17;;;3.80;68.10;;;;;;5061991;28;20037;-63
2021/01/02 10:58:14;;;;;;;30.40;16.95;;;3.80;67.90;;;;;;5065808;28;20111;-63
2021/01/02 11:00:40;;;;;;;30.95;17.38;;;3.80;67.40;;;;;;5061322;28;20040;-63
2021/01/02 11:03:05;;;;;;;30.52;16.60;;;3.60;67.70;;;;;;5062434;28;20083;-63
2021/01/02 11:05:31;;;;;;;26.70;15.98;;;3.70;68.20;;;;;;5062690;28;20044;-63
2021/01/02 11:07:56;;;;;;;27.38;16.58;;;3.80;67.50;;;;;;5062412;28;20036;-64
2021/01/02 11:10:22;;;;;;;27.90;16.85;;;3.90;67.60;;;;;;5065395;28;20029;-63
2021/01/02 11:12:48;;;;;;;29.25;17.30;;;3.80;68.10;;;;;;5062457;28;20037;-63
2021/01/02 11:15:13;;;;;;;29.83;16.85;;;3.90;67.70;;;;;;5044059;28;20051;-63
2021/01/02 11:17:40;;;;;;;27.48;16.88;;;3.80;67.70;;;;;;5060791;28;20028;-64
2021/01/02 11:20:09;;;;;;;26.88;16.52;;;3.90;68.30;;;;;;5050467;28;20047;-63
2021/01/02 11:22:35;;;;;;;30.95;17.20;;;3.80;67.50;;;;;;5065314;28;20041;-63
2021/01/02 11:25:01;;;;;;;31.38;17.77;;;3.80;67.90;;;;;;5061903;28;20068;-63
2021/01/02 11:27:26;;;;;;;27.42;16.70;;;3.90;67.80;;;;;;5061916;28;20040;-63
2021/01/02 11:29:52;;;;;;;30.40;17.85;;;3.90;68.10;;;;;;5060961;28;20056;-63
2021/01/02 11:32:17;;;;;;;32.10;18.38;;;3.80;67.60;;;;;;5061646;28;20029;-63
2021/01/02 11:34:43;;;;;;;33.05;17.60;;;3.70;68.00;;;;;;5061884;28;20212;-63
2021/01/02 11:37:10;;;;;;;28.05;16.85;;;3.80;67.80;;;;;;5064976;28;20041;-64
2021/01/02 11:39:35;;;;;;;28.67;17.27;;;3.90;68.00;;;;;;5060879;28;20347;-64
2021/01/02 11:42:01;;;;;;;31.83;17.40;;;3.90;67.90;;;;;;5043741;28;20037;-63
2021/01/02 11:44:27;;;;;;;33.58;19.00;;;3.90;67.80;;;;;;5060446;28;20036;-63
2021/01/02 11:46:53;;;;;;;31.45;19.15;;;3.70;67.90;;;;;;5061680;28;20068;-63
2021/01/02 11:49:21;;;;;;;33.55;19.00;;;3.80;68.30;;;;;;5063821;28;20109;-63
2021/01/02 11:51:48;;;;;;;31.38;18.98;;;3.90;68.30;;;;;;5061796;28;20272;-63
2021/01/02 11:54:14;;;;;;;33.55;18.98;;;3.80;68.40;;;;;;5059314;28;20041;-63
2021/01/02 11:56:39;;;;;;;32.25;19.23;;;3.90;68.20;;;;;;5061285;28;20051;-63
2021/01/02 11:59:05;;;;;;;34.70;19.30;;;3.90;68.00;;;;;;5061351;28;20044;-63
2021/01/02 12:01:39;;;;;;;35.28;20.23;;;3.90;68.30;;;;;;5064336;28;20028;-63
2021/01/02 12:04:06;;;;;;;37.60;21.17;;;3.90;67.60;;;;;;5060893;28;20044;-64
2021/01/02 12:06:32;;;;;;;37.75;21.42;;;3.70;68.20;;;;;;5060237;28;20064;-63
2021/01/02 12:08:58;;;;;;;38.35;21.70;;;3.80;68.50;;;;;;5060986;28;20059;-63
2021/01/02 12:11:28;;;;;;;38.67;21.75;;;3.80;68.30;;;;;;5059719;28;20374;-63
2021/01/02 12:13:53;;;;;;;45.13;24.25;;;3.80;68.80;;;;;;5060672;28;20060;-64
2021/01/02 12:16:19;;;;;;;42.85;23.02;;;3.80;68.80;;;;;;5062914;28;20032;-63
2021/01/02 12:18:44;;;;;;;40.38;23.45;;;3.70;68.60;;;;;;5061053;28;20028;-64
2021/01/02 12:21:17;;;;;;;47.75;24.60;;;3.80;69.60;;;;;;5060823;28;20201;-63
2021/01/02 12:23:43;;;;;;;43.75;23.42;;;3.70;69.20;;;;;;5026613;28;20029;-63
2021/01/02 12:26:08;;;;;;;44.85;22.63;;;3.70;69.40;;;;;;5060721;28;20033;-63
2021/01/02 12:28:34;;;;;;;46.65;23.55;;;3.80;68.90;;;;;;5063970;28;20028;-63
2021/01/02 12:30:59;;;;;;;46.83;24.40;;;3.70;68.90;;;;;;5060096;28;20049;-63
2021/01/02 12:33:25;;;;;;;43.17;23.90;;;3.70;69.00;;;;;;5061027;28;20042;-63
2021/01/02 12:35:51;;;;;;;46.75;25.02;;;3.60;68.80;;;;;;5059323;28;20032;-63
2021/01/02 12:38:16;;;;;;;48.35;26.08;;;3.50;69.30;;;;;;5061252;28;20033;-63
2021/01/02 12:40:42;;;;;;;47.00;24.58;;;3.60;69.60;;;;;;5060575;28;20033;-64
2021/01/02 12:43:08;;;;;;;46.90;25.13;;;3.40;69.40;;;;;;5063065;28;20029;-63
2021/01/02 12:45:33;;;;;;;44.20;24.30;;;3.30;69.00;;;;;;5059873;28;20041;-63
2021/01/02 12:47:59;;;;;;;46.72;24.80;;;3.30;69.40;;;;;;5060661;28;20078;-63
2021/01/02 12:50:24;;;;;;;49.45;25.40;;;3.20;69.70;;;;;;5059264;28;20332;-64
2021/01/02 12:52:50;;;;;;;51.63;25.83;;;3.40;69.40;;;;;;5059693;28;20036;-64